Spotflight – CFC3648

On 28MAR22 a Canadian C-17 made a rare visit to the small civilian airfield of Eelde (EHGG) in The Netherlands.

14:48:21 28-03-22 UTC AES:C2B3D7 GES:C5 2 .77701A ! A4 G Boeing CC-177 Globemaster III Royal Canadian Air Force

/MLBSDCR.FS1/FSM 
EHGG,1448,
METAR: EHGG 281425Z AUTO 33006KT 280V020 9999 NSC 10/06 Q1021 NOSIG

TAF: EHGG 281119Z 2812/2918 34006KT 9999 FEW008
 BECMG 2818/2820 6000 BKN008
 PROB30 TEMPO 2819/2907 4500 BR BKN004
 BECMG 2905/2908 9999 BKN0251427

14:57:37 28-03-22 UTC AES:C2B3D7 GES:C5 2 .77701A ! H1 H Boeing CC-177 Globemaster III Royal Canadian Air Force

- #MD/A0 SOUCAYA.AFN/FMHCFC3648,.77701A,,145734/FAK5,EGTT4517

Spread the word. Share this post!